»·PEaware :: QXE2280 KRNO-KBOI

QXE2280 :: KRNO-KBOI

FLIGHT INFORMATION

Flight Status: Arrived
Operator:
Horizon Air
More flights by this operator :: More flights under this callsign
Pilot: Brian A. (9771)
Aircraft: AIRBUS A320
(A320)
More flights by this aircraft type
Origin: KRNO Reno/Tahoe Intl
United States
Destination: KBOI Boise Air Terminal/Gowen
United States
More flights between these airports :: More routes between these airports
Route: +PVINE3 PYGOW PRNCS SADYL3
File this flight plan on PilotEdge
Remarks:
Altitude:
(Current/Filed)
25,000ft
Speed:
(Current/Filed)
425kts
Departed: 24-Feb-18 01:47 PM
Arrived: 24-Feb-18 02:43 PM
Distance/Time
Traveled:
291nm/0:55
Distance/Time
To Go:
Arrived

Flight Plot

Page will automatically refresh every two minutes.

Flight plan parsing failed; only flown route is shown


Map Options




Map Legend


Flown Route
Filed Route
Departure Airport
Arrival Airport
Navaid (VOR, NDB)
Fix

Horizontal Profiles

Position Reports

Time Latitude Longitude Heading Altitude Ground
Speed
24-Feb-18 13:30 39.507834 -119.774398 180 4429ft 0kts
24-Feb-18 13:31 39.507834 -119.774398 180 4429ft 0kts
24-Feb-18 13:32 39.507834 -119.774398 180 4429ft 0kts
24-Feb-18 13:33 39.507834 -119.774398 180 4429ft 0kts
24-Feb-18 13:34 39.507834 -119.774398 180 4429ft 0kts
24-Feb-18 13:35 39.507834 -119.774398 180 4429ft 0kts
24-Feb-18 13:36 39.507834 -119.774398 180 4429ft 0kts
24-Feb-18 13:37 39.507834 -119.774398 180 4429ft 0kts
24-Feb-18 13:38 39.507834 -119.774398 180 4429ft 0kts
24-Feb-18 13:39 39.507834 -119.774398 180 4429ft 0kts
24-Feb-18 13:40 39.507834 -119.774398 180 4429ft 0kts
24-Feb-18 13:41 39.507834 -119.774398 180 4429ft 0kts
24-Feb-18 13:42 39.507834 -119.774398 180 4429ft 0kts
24-Feb-18 13:43 39.507834 -119.774398 180 4429ft 0kts
24-Feb-18 13:44 39.507834 -119.774398 180 4429ft 0kts
24-Feb-18 13:45 39.507834 -119.774398 180 4429ft 0kts
24-Feb-18 13:46 39.507834 -119.774398 180 4429ft 0kts
24-Feb-18 13:47 39.508267 -119.774391 180 4429ft 2kts
24-Feb-18 13:48 39.509054 -119.774377 180 4429ft 1kts
24-Feb-18 13:49 39.509027 -119.774377 180 4429ft 0kts
24-Feb-18 13:50 39.508799 -119.774075 98 4429ft 4kts
24-Feb-18 13:51 39.508776 -119.771867 107 4429ft 2kts
24-Feb-18 13:52 39.504840 -119.771585 181 4429ft 22kts
24-Feb-18 13:53 39.497178 -119.771649 178 4429ft 34kts
24-Feb-18 13:54 39.485972 -119.771629 179 4429ft 41kts
24-Feb-18 13:55 39.483776 -119.770306 82 4429ft 0kts
24-Feb-18 13:56 39.483777 -119.770305 82 4429ft 0kts
24-Feb-18 13:57 39.483777 -119.770304 82 4429ft 0kts
24-Feb-18 13:58 39.488447 -119.769393 359 4429ft 94kts
24-Feb-18 13:59 39.532038 -119.769577 358 6475ft 172kts
24-Feb-18 14:00 39.591436 -119.766344 1 7296ft 272kts
24-Feb-18 14:01 39.657917 -119.704463 36 9635ft 296kts
24-Feb-18 14:02 39.729532 -119.632170 32 10542ft 362kts
24-Feb-18 14:03 39.803611 -119.536937 39 13067ft 381kts
24-Feb-18 14:04 39.876901 -119.433740 38 15285ft 393kts
24-Feb-18 14:05 39.952318 -119.327309 38 17314ft 406kts
24-Feb-18 14:06 40.034010 -119.226163 17 19172ft 394kts
24-Feb-18 14:07 40.135148 -119.170145 13 20989ft 398kts
24-Feb-18 14:08 40.237636 -119.111594 13 22634ft 406kts
24-Feb-18 14:09 40.342153 -119.052414 13 24113ft 413kts
24-Feb-18 14:10 40.447515 -118.992231 13 25145ft 409kts
24-Feb-18 14:11 40.552079 -118.932573 13 25138ft 411kts
24-Feb-18 14:12 40.657159 -118.872218 13 25138ft 411kts
24-Feb-18 14:13 40.761993 -118.811927 13 25084ft 413kts
24-Feb-18 14:14 40.866991 -118.751222 13 25123ft 412kts
24-Feb-18 14:15 40.972420 -118.690101 13 25098ft 414kts
24-Feb-18 14:16 41.077813 -118.628781 14 25118ft 414kts
24-Feb-18 14:17 41.183696 -118.567011 14 25061ft 416kts
24-Feb-18 14:18 41.289585 -118.504938 14 25052ft 417kts
24-Feb-18 14:19 41.395832 -118.442476 14 25051ft 419kts
24-Feb-18 14:20 41.502901 -118.379320 15 25093ft 420kts
24-Feb-18 14:21 41.610283 -118.315724 15 25059ft 423kts
24-Feb-18 14:22 41.718170 -118.251620 15 25076ft 424kts
24-Feb-18 14:23 41.826163 -118.187140 15 25005ft 426kts
24-Feb-18 14:24 41.934593 -118.122238 16 25047ft 427kts
24-Feb-18 14:25 42.025457 -118.067668 16 25054ft 428kts
24-Feb-18 14:26 42.152313 -117.991138 16 25059ft 429kts
24-Feb-18 14:27 42.261024 -117.925314 16 25046ft 428kts
24-Feb-18 14:28 42.369967 -117.859071 16 25002ft 427kts
24-Feb-18 14:29 42.470541 -117.771681 43 24983ft 455kts
24-Feb-18 14:30 42.536556 -117.659044 44 25001ft 456kts
24-Feb-18 14:31 42.617289 -117.526421 44 24998ft 456kts
24-Feb-18 14:32 42.706106 -117.377579 44 23998ft 413kts
24-Feb-18 14:33 42.766505 -117.276760 45 22249ft 409kts
24-Feb-18 14:34 42.836680 -117.157912 45 21010ft 395kts
24-Feb-18 14:35 42.905497 -117.040974 46 21011ft 396kts
24-Feb-18 14:36 42.974199 -116.923539 46 19083ft 403kts
24-Feb-18 14:37 43.042485 -116.806079 46 17526ft 370kts
24-Feb-18 14:38 43.102765 -116.704335 45 16086ft 331kts
24-Feb-18 14:39 43.160013 -116.607207 45 14188ft 324kts
24-Feb-18 14:40 43.230661 -116.548888 6 12287ft 291kts
24-Feb-18 14:41 43.307514 -116.519239 11 10381ft 283kts
24-Feb-18 14:42 43.382710 -116.489182 14 8497ft 280kts
24-Feb-18 14:43 43.457020 -116.465874 355 6979ft 269kts
24-Feb-18 14:44 43.531222 -116.474548 353 5588ft 266kts
24-Feb-18 14:45 43.601987 -116.484728 354 4738ft 240kts
24-Feb-18 14:46 43.638642 -116.428790 85 4473ft 212kts
24-Feb-18 14:47 43.611972 -116.364935 115 4521ft 188kts
24-Feb-18 14:48 43.590978 -116.304079 114 4476ft 146kts
24-Feb-18 14:49 43.573989 -116.248715 125 3112ft 145kts
24-Feb-18 14:50 43.561904 -116.212499 113 2885ft 25kts
24-Feb-18 14:51 43.562388 -116.211265 5 2885ft 0kts
24-Feb-18 14:52 43.562391 -116.211264 5 2885ft 1kts
24-Feb-18 14:53 43.564755 -116.217284 292 2885ft 28kts
24-Feb-18 14:54 43.566670 -116.219122 15 2885ft 3kts
24-Feb-18 14:55 43.566749 -116.219090 16 2885ft 0kts

Navigation Log

Ident Type
Flight plan parsing failed, navigation log unavailable